sensor_id;sensor_type;location;lat;lon;timestamp;pressure;altitude;pressure_sealevel;temperature;humidity
61113;BME280;47184;57.998;56.184;2023-02-24T00:01:25;98328.28;;;-15.13;60.32
61113;BME280;47184;57.998;56.184;2023-02-24T00:03:57;98317.81;;;-15.30;60.39
61113;BME280;47184;57.998;56.184;2023-02-24T00:06:26;98336.22;;;-15.25;61.13
61113;BME280;47184;57.998;56.184;2023-02-24T00:09:12;98339.00;;;-15.34;61.79
61113;BME280;47184;57.998;56.184;2023-02-24T00:11:43;98342.34;;;-15.34;61.50
61113;BME280;47184;57.998;56.184;2023-02-24T00:14:13;98350.84;;;-15.36;61.14
61113;BME280;47184;57.998;56.184;2023-02-24T00:16:42;98344.25;;;-15.42;61.67
61113;BME280;47184;57.998;56.184;2023-02-24T00:19:16;98342.69;;;-15.46;61.62
61113;BME280;47184;57.998;56.184;2023-02-24T00:21:43;98312.97;;;-15.69;61.72
61113;BME280;47184;57.998;56.184;2023-02-24T00:24:10;98337.69;;;-15.49;61.44
61113;BME280;47184;57.998;56.184;2023-02-24T00:26:36;98344.41;;;-15.48;61.22
61113;BME280;47184;57.998;56.184;2023-02-24T00:29:05;98342.00;;;-15.53;60.72
61113;BME280;47184;57.998;56.184;2023-02-24T00:31:32;98347.88;;;-15.51;61.01
61113;BME280;47184;57.998;56.184;2023-02-24T00:34:00;98356.44;;;-15.56;61.81
61113;BME280;47184;57.998;56.184;2023-02-24T00:36:28;98352.31;;;-15.59;61.27
61113;BME280;47184;57.998;56.184;2023-02-24T00:39:03;98358.31;;;-15.63;61.54
61113;BME280;47184;57.998;56.184;2023-02-24T00:41:42;98352.56;;;-15.68;61.84
61113;BME280;47184;57.998;56.184;2023-02-24T00:44:13;98355.19;;;-15.71;61.92
61113;BME280;47184;57.998;56.184;2023-02-24T00:46:45;98354.50;;;-15.78;61.25
61113;BME280;47184;57.998;56.184;2023-02-24T00:49:17;98375.41;;;-15.71;61.89
61113;BME280;47184;57.998;56.184;2023-02-24T00:51:46;98367.91;;;-15.74;62.46
61113;BME280;47184;57.998;56.184;2023-02-24T00:54:16;98366.25;;;-15.75;61.52
61113;BME280;47184;57.998;56.184;2023-02-24T00:56:45;98374.78;;;-15.79;62.58
61113;BME280;47184;57.998;56.184;2023-02-24T00:59:15;98370.53;;;-15.79;61.20
61113;BME280;47184;57.998;56.184;2023-02-24T01:01:43;98372.28;;;-15.81;61.11
61113;BME280;47184;57.998;56.184;2023-02-24T01:04:11;98375.75;;;-15.85;62.41
61113;BME280;47184;57.998;56.184;2023-02-24T01:06:43;98381.06;;;-15.95;61.94
61113;BME280;47184;57.998;56.184;2023-02-24T01:09:15;98391.06;;;-15.91;62.37
61113;BME280;47184;57.998;56.184;2023-02-24T01:11:43;98389.44;;;-15.92;62.01
61113;BME280;47184;57.998;56.184;2023-02-24T01:14:31;98397.97;;;-15.97;62.41
61113;BME280;47184;57.998;56.184;2023-02-24T01:16:57;98400.53;;;-15.99;62.37
61113;BME280;47184;57.998;56.184;2023-02-24T01:19:29;98394.84;;;-16.09;61.68
61113;BME280;47184;57.998;56.184;2023-02-24T01:22:05;98408.25;;;-16.05;62.38
61113;BME280;47184;57.998;56.184;2023-02-24T01:24:38;98411.06;;;-16.16;62.57
61113;BME280;47184;57.998;56.184;2023-02-24T01:27:06;98409.31;;;-16.14;62.43
61113;BME280;47184;57.998;56.184;2023-02-24T01:29:34;98412.00;;;-16.21;62.46
61113;BME280;47184;57.998;56.184;2023-02-24T01:32:05;98407.88;;;-16.26;61.52
61113;BME280;47184;57.998;56.184;2023-02-24T01:34:32;98398.94;;;-16.39;62.85
61113;BME280;47184;57.998;56.184;2023-02-24T01:37:00;98416.56;;;-16.37;62.90
61113;BME280;47184;57.998;56.184;2023-02-24T01:39:26;98421.66;;;-16.39;62.66
61113;BME280;47184;57.998;56.184;2023-02-24T01:41:53;98427.47;;;-16.35;61.73
61113;BME280;47184;57.998;56.184;2023-02-24T01:46:51;98414.19;;;-16.43;61.80
61113;BME280;47184;57.998;56.184;2023-02-24T01:54:47;98444.59;;;-16.48;62.22
61113;BME280;47184;57.998;56.184;2023-02-24T01:57:18;98421.47;;;-16.68;62.42
61113;BME280;47184;57.998;56.184;2023-02-24T01:59:47;98420.16;;;-16.86;62.35
61113;BME280;47184;57.998;56.184;2023-02-24T02:02:15;98444.91;;;-16.63;62.68
61113;BME280;47184;57.998;56.184;2023-02-24T02:04:56;98450.06;;;-16.68;62.34
61113;BME280;47184;57.998;56.184;2023-02-24T02:07:27;98442.47;;;-16.68;61.96
61113;BME280;47184;57.998;56.184;2023-02-24T02:09:54;98438.22;;;-16.66;62.32
61113;BME280;47184;57.998;56.184;2023-02-24T02:12:26;98428.41;;;-16.77;62.97
61113;BME280;47184;57.998;56.184;2023-02-24T02:14:54;98454.22;;;-16.65;62.14
61113;BME280;47184;57.998;56.184;2023-02-24T02:23:13;98459.34;;;-16.70;62.80
61113;BME280;47184;57.998;56.184;2023-02-24T02:41:47;98471.09;;;-16.67;63.36
61113;BME280;47184;57.998;56.184;2023-02-24T02:44:22;98477.78;;;-16.66;62.49
61113;BME280;47184;57.998;56.184;2023-02-24T02:49:39;98482.19;;;-16.73;63.48
61113;BME280;47184;57.998;56.184;2023-02-24T02:52:17;98486.97;;;-16.61;62.61
61113;BME280;47184;57.998;56.184;2023-02-24T02:54:52;98492.00;;;-16.61;63.50
61113;BME280;47184;57.998;56.184;2023-02-24T02:57:29;98496.16;;;-16.58;62.90
61113;BME280;47184;57.998;56.184;2023-02-24T03:00:07;98490.41;;;-16.66;62.59
61113;BME280;47184;57.998;56.184;2023-02-24T03:02:42;98479.84;;;-16.84;62.76
61113;BME280;47184;57.998;56.184;2023-02-24T03:05:11;98491.50;;;-16.77;62.81
61113;BME280;47184;57.998;56.184;2023-02-24T03:07:48;98510.66;;;-16.68;62.38
61113;BME280;47184;57.998;56.184;2023-02-24T03:10:19;98513.31;;;-16.72;63.58
61113;BME280;47184;57.998;56.184;2023-02-24T03:12:51;98511.69;;;-16.77;62.80
61113;BME280;47184;57.998;56.184;2023-02-24T03:15:20;98523.41;;;-16.72;62.35
61113;BME280;47184;57.998;56.184;2023-02-24T03:17:51;98504.28;;;-16.84;63.11
61113;BME280;47184;57.998;56.184;2023-02-24T03:20:28;98504.38;;;-16.90;62.68
61113;BME280;47184;57.998;56.184;2023-02-24T03:23:02;98531.84;;;-16.75;63.13
61113;BME280;47184;57.998;56.184;2023-02-24T03:25:37;98541.09;;;-16.74;63.16
61113;BME280;47184;57.998;56.184;2023-02-24T03:28:18;98546.13;;;-16.74;63.45
61113;BME280;47184;57.998;56.184;2023-02-24T03:31:00;98537.91;;;-16.84;63.37
61113;BME280;47184;57.998;56.184;2023-02-24T03:33:56;98550.44;;;-16.79;63.04
61113;BME280;47184;57.998;56.184;2023-02-24T03:36:27;98554.50;;;-16.72;62.90
61113;BME280;47184;57.998;56.184;2023-02-24T03:38:55;98549.41;;;-16.69;62.35
61113;BME280;47184;57.998;56.184;2023-02-24T03:41:29;98557.72;;;-16.64;63.18
61113;BME280;47184;57.998;56.184;2023-02-24T03:44:00;98565.25;;;-16.61;62.31
61113;BME280;47184;57.998;56.184;2023-02-24T03:46:27;98569.47;;;-16.61;62.39
61113;BME280;47184;57.998;56.184;2023-02-24T03:49:02;98576.19;;;-16.62;62.06
61113;BME280;47184;57.998;56.184;2023-02-24T03:51:31;98580.31;;;-16.58;62.14
61113;BME280;47184;57.998;56.184;2023-02-24T04:00:11;98575.09;;;-16.48;61.45
61113;BME280;47184;57.998;56.184;2023-02-24T04:03:09;98582.00;;;-16.58;62.38
61113;BME280;47184;57.998;56.184;2023-02-24T04:06:11;98573.59;;;-16.59;62.31
61113;BME280;47184;57.998;56.184;2023-02-24T04:08:52;98579.44;;;-16.55;62.13
61113;BME280;47184;57.998;56.184;2023-02-24T04:11:46;98555.41;;;-16.75;62.21
61113;BME280;47184;57.998;56.184;2023-02-24T04:14:21;98588.75;;;-16.59;62.30
61113;BME280;47184;57.998;56.184;2023-02-24T04:19:47;98596.28;;;-16.56;62.29
61113;BME280;47184;57.998;56.184;2023-02-24T04:22:18;98593.75;;;-16.56;61.28
61113;BME280;47184;57.998;56.184;2023-02-24T04:24:52;98595.41;;;-16.55;61.33
61113;BME280;47184;57.998;56.184;2023-02-24T04:27:21;98588.66;;;-16.54;61.76
61113;BME280;47184;57.998;56.184;2023-02-24T04:29:52;98598.66;;;-16.48;62.08
61113;BME280;47184;57.998;56.184;2023-02-24T04:32:22;98605.28;;;-16.42;61.49
61113;BME280;47184;57.998;56.184;2023-02-24T04:34:49;98564.47;;;-16.64;61.00
61113;BME280;47184;57.998;56.184;2023-02-24T04:37:17;98616.94;;;-16.35;61.79
61113;BME280;47184;57.998;56.184;2023-02-24T04:39:48;98609.56;;;-16.46;60.51
61113;BME280;47184;57.998;56.184;2023-02-24T04:42:23;98614.59;;;-16.46;60.98
61113;BME280;47184;57.998;56.184;2023-02-24T04:44:49;98602.13;;;-16.54;60.47
61113;BME280;47184;57.998;56.184;2023-02-24T04:47:15;98605.59;;;-16.59;60.91
61113;BME280;47184;57.998;56.184;2023-02-24T04:49:41;98620.63;;;-16.52;61.09
61113;BME280;47184;57.998;56.184;2023-02-24T04:52:09;98617.13;;;-16.46;61.39
61113;BME280;47184;57.998;56.184;2023-02-24T04:54:35;98629.53;;;-16.32;60.80
61113;BME280;47184;57.998;56.184;2023-02-24T04:57:03;98627.53;;;-16.16;60.41
61113;BME280;47184;57.998;56.184;2023-02-24T04:59:31;98598.97;;;-16.20;61.37
61113;BME280;47184;57.998;56.184;2023-02-24T05:01:58;98601.34;;;-16.12;61.00
61113;BME280;47184;57.998;56.184;2023-02-24T05:04:26;98630.31;;;-15.87;61.10
61113;BME280;47184;57.998;56.184;2023-02-24T05:06:55;98616.13;;;-15.94;59.97
61113;BME280;47184;57.998;56.184;2023-02-24T05:09:22;98630.81;;;-16.11;60.78
61113;BME280;47184;57.998;56.184;2023-02-24T05:11:50;98644.03;;;-15.98;59.84
61113;BME280;47184;57.998;56.184;2023-02-24T05:14:18;98633.16;;;-16.02;59.95
61113;BME280;47184;57.998;56.184;2023-02-24T05:16:47;98643.06;;;-15.91;60.63
61113;BME280;47184;57.998;56.184;2023-02-24T05:19:16;98647.88;;;-15.81;59.88
61113;BME280;47184;57.998;56.184;2023-02-24T05:22:01;98636.00;;;-15.76;60.53
61113;BME280;47184;57.998;56.184;2023-02-24T05:24:28;98617.06;;;-15.61;59.45
61113;BME280;47184;57.998;56.184;2023-02-24T05:26:56;98648.38;;;-15.28;58.86
61113;BME280;47184;57.998;56.184;2023-02-24T05:29:32;98638.41;;;-14.96;58.78
61113;BME280;47184;57.998;56.184;2023-02-24T05:32:02;98645.34;;;-14.70;58.49
61113;BME280;47184;57.998;56.184;2023-02-24T05:34:30;98639.59;;;-14.44;57.63
61113;BME280;47184;57.998;56.184;2023-02-24T05:36:58;98642.72;;;-14.35;57.54
61113;BME280;47184;57.998;56.184;2023-02-24T05:39:26;98657.22;;;-14.07;56.36
61113;BME280;47184;57.998;56.184;2023-02-24T05:41:54;98659.50;;;-13.98;56.16
61113;BME280;47184;57.998;56.184;2023-02-24T05:44:22;98667.59;;;-13.85;56.35
61113;BME280;47184;57.998;56.184;2023-02-24T05:46:52;98669.75;;;-13.71;56.14
61113;BME280;47184;57.998;56.184;2023-02-24T05:49:25;98659.00;;;-13.80;56.41
61113;BME280;47184;57.998;56.184;2023-02-24T05:51:56;98652.50;;;-13.90;56.26
61113;BME280;47184;57.998;56.184;2023-02-24T05:54:25;98654.31;;;-13.36;56.05
61113;BME280;47184;57.998;56.184;2023-02-24T05:56:57;98655.31;;;-12.60;55.38
61113;BME280;47184;57.998;56.184;2023-02-24T05:59:25;98643.69;;;-12.17;54.61
61113;BME280;47184;57.998;56.184;2023-02-24T06:01:58;98664.50;;;-11.59;53.29
61113;BME280;47184;57.998;56.184;2023-02-24T06:04:25;98673.91;;;-11.16;52.80
61113;BME280;47184;57.998;56.184;2023-02-24T06:07:30;98664.72;;;-10.76;51.37
61113;BME280;47184;57.998;56.184;2023-02-24T06:10:00;98664.69;;;-10.34;51.19
61113;BME280;47184;57.998;56.184;2023-02-24T06:12:29;98669.78;;;-9.74;50.77
61113;BME280;47184;57.998;56.184;2023-02-24T06:14:55;98669.94;;;-9.58;49.16
61113;BME280;47184;57.998;56.184;2023-02-24T06:17:25;98663.66;;;-9.70;47.52
61113;BME280;47184;57.998;56.184;2023-02-24T06:19:53;98682.03;;;-9.43;47.74
61113;BME280;47184;57.998;56.184;2023-02-24T06:22:21;98671.19;;;-9.29;47.28
61113;BME280;47184;57.998;56.184;2023-02-24T06:24:48;98685.41;;;-8.68;46.52
61113;BME280;47184;57.998;56.184;2023-02-24T06:27:17;98688.78;;;-8.68;45.49
61113;BME280;47184;57.998;56.184;2023-02-24T06:29:48;98677.19;;;-8.75;44.71
61113;BME280;47184;57.998;56.184;2023-02-24T06:32:16;98680.78;;;-8.10;45.12
61113;BME280;47184;57.998;56.184;2023-02-24T06:34:42;98689.50;;;-7.46;45.15
61113;BME280;47184;57.998;56.184;2023-02-24T06:37:11;98682.66;;;-7.30;44.09
61113;BME280;47184;57.998;56.184;2023-02-24T06:39:38;98684.38;;;-6.99;43.82
61113;BME280;47184;57.998;56.184;2023-02-24T06:42:06;98681.88;;;-6.53;43.30
61113;BME280;47184;57.998;56.184;2023-02-24T06:44:35;98698.06;;;-6.36;42.25
61113;BME280;47184;57.998;56.184;2023-02-24T06:47:03;98690.50;;;-6.69;41.64
61113;BME280;47184;57.998;56.184;2023-02-24T06:49:30;98701.84;;;-7.21;41.48
61113;BME280;47184;57.998;56.184;2023-02-24T06:51:56;98696.59;;;-7.35;41.95
61113;BME280;47184;57.998;56.184;2023-02-24T06:54:23;98701.41;;;-7.45;42.55
61113;BME280;47184;57.998;56.184;2023-02-24T06:56:57;98706.75;;;-7.83;41.79
61113;BME280;47184;57.998;56.184;2023-02-24T06:59:24;98708.47;;;-7.66;42.27
61113;BME280;47184;57.998;56.184;2023-02-24T07:01:54;98704.31;;;-7.19;41.52
61113;BME280;47184;57.998;56.184;2023-02-24T07:04:20;98699.50;;;-6.78;41.17
61113;BME280;47184;57.998;56.184;2023-02-24T07:06:53;98701.13;;;-6.45;40.42
61113;BME280;47184;57.998;56.184;2023-02-24T07:09:25;98701.88;;;-6.13;40.41
61113;BME280;47184;57.998;56.184;2023-02-24T07:11:53;98697.59;;;-5.56;39.39
61113;BME280;47184;57.998;56.184;2023-02-24T07:14:22;98701.44;;;-5.20;38.83
61113;BME280;47184;57.998;56.184;2023-02-24T07:16:49;98694.97;;;-4.57;38.21
61113;BME280;47184;57.998;56.184;2023-02-24T07:19:23;98700.13;;;-4.05;37.30
61113;BME280;47184;57.998;56.184;2023-02-24T07:21:54;98707.28;;;-3.57;36.61
61113;BME280;47184;57.998;56.184;2023-02-24T07:24:25;98712.31;;;-3.81;36.22
61113;BME280;47184;57.998;56.184;2023-02-24T07:27:03;98708.31;;;-3.72;37.16
61113;BME280;47184;57.998;56.184;2023-02-24T07:29:30;98699.53;;;-3.70;36.69
61113;BME280;47184;57.998;56.184;2023-02-24T07:31:58;98699.66;;;-3.71;37.14
61113;BME280;47184;57.998;56.184;2023-02-24T07:34:28;98714.19;;;-3.96;37.01
61113;BME280;47184;57.998;56.184;2023-02-24T07:36:54;98711.00;;;-3.49;37.19
61113;BME280;47184;57.998;56.184;2023-02-24T07:39:22;98709.31;;;-2.27;36.60
61113;BME280;47184;57.998;56.184;2023-02-24T07:41:49;98711.97;;;-1.46;36.23
61113;BME280;47184;57.998;56.184;2023-02-24T07:44:19;98686.75;;;-0.88;35.12
61113;BME280;47184;57.998;56.184;2023-02-24T07:46:45;98713.31;;;-0.20;34.13
61113;BME280;47184;57.998;56.184;2023-02-24T07:49:15;98685.50;;;-0.30;33.09
61113;BME280;47184;57.998;56.184;2023-02-24T07:51:43;98708.63;;;-0.06;32.45
61113;BME280;47184;57.998;56.184;2023-02-24T07:54:09;98713.69;;;0.38;31.53
61113;BME280;47184;57.998;56.184;2023-02-24T07:56:36;98716.91;;;0.51;31.36
61113;BME280;47184;57.998;56.184;2023-02-24T07:59:12;98716.47;;;0.46;31.40
61113;BME280;47184;57.998;56.184;2023-02-24T08:01:41;98699.69;;;0.81;31.19
61113;BME280;47184;57.998;56.184;2023-02-24T08:04:14;98715.69;;;1.26;29.88
61113;BME280;47184;57.998;56.184;2023-02-24T08:06:41;98715.56;;;0.78;28.99
61113;BME280;47184;57.998;56.184;2023-02-24T08:09:13;98718.56;;;0.31;29.65
61113;BME280;47184;57.998;56.184;2023-02-24T08:11:55;98721.59;;;0.15;29.46
61113;BME280;47184;57.998;56.184;2023-02-24T08:14:27;98711.88;;;0.29;30.28
61113;BME280;47184;57.998;56.184;2023-02-24T08:16:58;98688.34;;;0.51;29.83
61113;BME280;47184;57.998;56.184;2023-02-24T08:19:29;98708.63;;;0.97;29.05
61113;BME280;47184;57.998;56.184;2023-02-24T08:21:59;98709.47;;;1.77;29.41
61113;BME280;47184;57.998;56.184;2023-02-24T08:25:03;98694.25;;;1.63;29.27
61113;BME280;47184;57.998;56.184;2023-02-24T08:27:34;98700.63;;;2.46;28.22
61113;BME280;47184;57.998;56.184;2023-02-24T08:30:06;98685.97;;;2.82;27.90
61113;BME280;47184;57.998;56.184;2023-02-24T08:32:39;98722.06;;;3.14;26.90
61113;BME280;47184;57.998;56.184;2023-02-24T08:35:16;98713.66;;;2.36;27.06
61113;BME280;47184;57.998;56.184;2023-02-24T08:37:53;98716.72;;;1.64;27.22
61113;BME280;47184;57.998;56.184;2023-02-24T08:40:25;98717.75;;;0.82;27.40
61113;BME280;47184;57.998;56.184;2023-02-24T08:43:20;98713.25;;;0.54;28.11
61113;BME280;47184;57.998;56.184;2023-02-24T08:46:01;98729.75;;;0.53;27.84
61113;BME280;47184;57.998;56.184;2023-02-24T08:48:49;98731.09;;;0.05;28.60
61113;BME280;47184;57.998;56.184;2023-02-24T08:53:52;98722.75;;;0.02;28.89
61113;BME280;47184;57.998;56.184;2023-02-24T08:56:20;98725.75;;;-0.14;28.76
61113;BME280;47184;57.998;56.184;2023-02-24T08:58:53;98719.13;;;0.56;29.01
61113;BME280;47184;57.998;56.184;2023-02-24T09:01:27;98724.81;;;1.61;27.71
61113;BME280;47184;57.998;56.184;2023-02-24T09:04:09;98729.72;;;1.83;28.12
61113;BME280;47184;57.998;56.184;2023-02-24T09:06:46;98723.13;;;1.40;28.34
61113;BME280;47184;57.998;56.184;2023-02-24T09:09:16;98717.97;;;1.69;28.91
61113;BME280;47184;57.998;56.184;2023-02-24T09:11:45;98711.94;;;1.69;28.94
61113;BME280;47184;57.998;56.184;2023-02-24T09:14:16;98722.81;;;1.14;28.85
61113;BME280;47184;57.998;56.184;2023-02-24T09:16:47;98718.47;;;0.63;29.41
61113;BME280;47184;57.998;56.184;2023-02-24T09:19:41;98716.22;;;0.49;29.72
61113;BME280;47184;57.998;56.184;2023-02-24T09:22:22;98725.56;;;0.82;28.96
61113;BME280;47184;57.998;56.184;2023-02-24T09:25:09;98723.28;;;0.68;28.63
61113;BME280;47184;57.998;56.184;2023-02-24T09:28:05;98727.13;;;0.43;29.32
61113;BME280;47184;57.998;56.184;2023-02-24T09:30:37;98730.69;;;0.21;29.19
61113;BME280;47184;57.998;56.184;2023-02-24T09:36:14;98732.53;;;-0.23;30.51
61113;BME280;47184;57.998;56.184;2023-02-24T09:39:07;98735.88;;;-0.32;30.68
61113;BME280;47184;57.998;56.184;2023-02-24T09:47:14;98740.81;;;-1.17;32.37
61113;BME280;47184;57.998;56.184;2023-02-24T09:49:52;98733.03;;;-1.51;33.02
61113;BME280;47184;57.998;56.184;2023-02-24T09:52:26;98743.38;;;-1.51;33.52
61113;BME280;47184;57.998;56.184;2023-02-24T09:55:35;98748.22;;;-1.13;33.33
61113;BME280;47184;57.998;56.184;2023-02-24T09:58:42;98747.63;;;-0.71;32.90
61113;BME280;47184;57.998;56.184;2023-02-24T10:04:25;98740.59;;;-1.14;31.93
61113;BME280;47184;57.998;56.184;2023-02-24T10:07:07;98758.84;;;-0.93;32.78
61113;BME280;47184;57.998;56.184;2023-02-24T10:10:24;98752.94;;;-0.73;32.45
61113;BME280;47184;57.998;56.184;2023-02-24T10:13:03;98767.59;;;-0.40;31.70
61113;BME280;47184;57.998;56.184;2023-02-24T10:15:40;98760.91;;;-0.21;31.89
61113;BME280;47184;57.998;56.184;2023-02-24T10:18:34;98758.09;;;-0.18;31.53
61113;BME280;47184;57.998;56.184;2023-02-24T10:24:00;98766.84;;;-0.85;31.74
61113;BME280;47184;57.998;56.184;2023-02-24T10:26:37;98778.34;;;-0.56;31.45
61113;BME280;47184;57.998;56.184;2023-02-24T10:32:19;98768.50;;;0.03;31.54
61113;BME280;47184;57.998;56.184;2023-02-24T10:34:56;98770.41;;;-0.43;31.20
61113;BME280;47184;57.998;56.184;2023-02-24T10:37:23;98773.03;;;-0.54;31.42
61113;BME280;47184;57.998;56.184;2023-02-24T10:39:59;98769.03;;;-0.58;31.47
61113;BME280;47184;57.998;56.184;2023-02-24T10:42:36;98773.75;;;-0.63;31.50
61113;BME280;47184;57.998;56.184;2023-02-24T10:47:38;98768.69;;;-0.65;31.07
61113;BME280;47184;57.998;56.184;2023-02-24T10:52:52;98777.75;;;-0.48;31.59
61113;BME280;47184;57.998;56.184;2023-02-24T10:58:01;98778.25;;;-0.77;31.75
61113;BME280;47184;57.998;56.184;2023-02-24T11:00:45;98774.13;;;-0.90;32.08
61113;BME280;47184;57.998;56.184;2023-02-24T11:03:32;98784.13;;;-1.31;31.83
61113;BME280;47184;57.998;56.184;2023-02-24T11:06:23;98784.41;;;-1.93;32.54
61113;BME280;47184;57.998;56.184;2023-02-24T11:09:16;98787.91;;;-1.70;33.23
61113;BME280;47184;57.998;56.184;2023-02-24T11:11:57;98779.91;;;-1.78;33.23
61113;BME280;47184;57.998;56.184;2023-02-24T11:17:36;98780.88;;;-1.57;33.49
61113;BME280;47184;57.998;56.184;2023-02-24T11:20:17;98795.78;;;-1.25;32.74
61113;BME280;47184;57.998;56.184;2023-02-24T11:22:49;98793.34;;;-0.82;32.69
61113;BME280;47184;57.998;56.184;2023-02-24T11:25:45;98796.63;;;-0.80;32.40
61113;BME280;47184;57.998;56.184;2023-02-24T11:31:03;98800.84;;;-0.67;32.74
61113;BME280;47184;57.998;56.184;2023-02-24T11:42:31;98794.91;;;-1.48;33.06
61113;BME280;47184;57.998;56.184;2023-02-24T11:47:52;98811.50;;;-1.39;33.64
61113;BME280;47184;57.998;56.184;2023-02-24T11:52:55;98803.53;;;-1.36;33.45
61113;BME280;47184;57.998;56.184;2023-02-24T11:55:40;98819.56;;;-1.20;33.21
61113;BME280;47184;57.998;56.184;2023-02-24T11:58:34;98818.09;;;-1.46;33.54
61113;BME280;47184;57.998;56.184;2023-02-24T12:04:31;98813.13;;;-1.61;33.73
61113;BME280;47184;57.998;56.184;2023-02-24T12:09:29;98810.66;;;-2.71;34.33
61113;BME280;47184;57.998;56.184;2023-02-24T12:12:21;98821.56;;;-3.30;35.02
61113;BME280;47184;57.998;56.184;2023-02-24T12:14:54;98825.28;;;-3.86;35.59
61113;BME280;47184;57.998;56.184;2023-02-24T12:17:36;98832.00;;;-4.52;36.96
61113;BME280;47184;57.998;56.184;2023-02-24T12:23:02;98835.88;;;-5.16;38.34
61113;BME280;47184;57.998;56.184;2023-02-24T12:25:39;98839.41;;;-5.48;38.82
61113;BME280;47184;57.998;56.184;2023-02-24T12:28:25;98847.81;;;-5.74;39.77
61113;BME280;47184;57.998;56.184;2023-02-24T12:34:06;98842.03;;;-6.24;40.88
61113;BME280;47184;57.998;56.184;2023-02-24T12:37:16;98849.00;;;-6.57;41.68
61113;BME280;47184;57.998;56.184;2023-02-24T12:42:46;98853.28;;;-6.58;43.97
61113;BME280;47184;57.998;56.184;2023-02-24T12:45:19;98842.84;;;-6.55;43.59
61113;BME280;47184;57.998;56.184;2023-02-24T12:50:36;98846.66;;;-6.46;43.13
61113;BME280;47184;57.998;56.184;2023-02-24T12:53:28;98850.41;;;-6.52;44.51
61113;BME280;47184;57.998;56.184;2023-02-24T12:56:18;98854.63;;;-6.35;43.78
61113;BME280;47184;57.998;56.184;2023-02-24T12:58:50;98860.16;;;-6.27;43.56
61113;BME280;47184;57.998;56.184;2023-02-24T13:01:24;98865.16;;;-6.39;43.54
61113;BME280;47184;57.998;56.184;2023-02-24T13:04:21;98865.38;;;-6.60;43.06
61113;BME280;47184;57.998;56.184;2023-02-24T13:13:08;98876.84;;;-7.68;46.79
61113;BME280;47184;57.998;56.184;2023-02-24T13:15:48;98887.03;;;-7.84;46.46
61113;BME280;47184;57.998;56.184;2023-02-24T13:18:26;98855.16;;;-8.14;47.51
61113;BME280;47184;57.998;56.184;2023-02-24T13:21:19;98885.41;;;-8.23;47.77
61113;BME280;47184;57.998;56.184;2023-02-24T13:24:00;98882.97;;;-8.43;48.90
61113;BME280;47184;57.998;56.184;2023-02-24T13:26:29;98888.41;;;-8.51;49.42
61113;BME280;47184;57.998;56.184;2023-02-24T13:31:25;98888.88;;;-8.80;49.47
61113;BME280;47184;57.998;56.184;2023-02-24T13:33:52;98896.22;;;-8.73;49.81
61113;BME280;47184;57.998;56.184;2023-02-24T13:36:21;98896.28;;;-8.93;51.72
61113;BME280;47184;57.998;56.184;2023-02-24T13:38:51;98901.91;;;-9.05;51.19
61113;BME280;47184;57.998;56.184;2023-02-24T13:44:46;98905.19;;;-9.22;51.99
61113;BME280;47184;57.998;56.184;2023-02-24T13:54:33;98914.06;;;-9.10;51.79
61113;BME280;47184;57.998;56.184;2023-02-24T13:57:32;98921.75;;;-9.10;51.75
61113;BME280;47184;57.998;56.184;2023-02-24T14:02:56;98932.78;;;-9.30;52.62
61113;BME280;47184;57.998;56.184;2023-02-24T14:05:34;98924.53;;;-9.37;52.55
61113;BME280;47184;57.998;56.184;2023-02-24T14:08:01;98935.59;;;-9.36;52.80
61113;BME280;47184;57.998;56.184;2023-02-24T14:10:31;98923.50;;;-9.53;53.16
61113;BME280;47184;57.998;56.184;2023-02-24T14:13:12;98937.47;;;-9.62;54.10
61113;BME280;47184;57.998;56.184;2023-02-24T14:15:42;98941.31;;;-9.52;53.77
61113;BME280;47184;57.998;56.184;2023-02-24T14:18:23;98936.03;;;-9.69;54.63
61113;BME280;47184;57.998;56.184;2023-02-24T14:20:50;98947.00;;;-9.87;55.30
61113;BME280;47184;57.998;56.184;2023-02-24T14:26:04;98928.81;;;-10.02;55.94
61113;BME280;47184;57.998;56.184;2023-02-24T14:28:36;98954.09;;;-9.74;55.54
61113;BME280;47184;57.998;56.184;2023-02-24T14:31:14;98958.47;;;-9.76;55.81
61113;BME280;47184;57.998;56.184;2023-02-24T14:33:42;98961.06;;;-9.77;55.56
61113;BME280;47184;57.998;56.184;2023-02-24T14:36:18;98966.94;;;-9.75;55.66
61113;BME280;47184;57.998;56.184;2023-02-24T14:38:45;98970.50;;;-9.79;55.64
61113;BME280;47184;57.998;56.184;2023-02-24T14:41:23;98973.19;;;-9.82;55.91
61113;BME280;47184;57.998;56.184;2023-02-24T14:43:50;98975.72;;;-9.82;56.23
61113;BME280;47184;57.998;56.184;2023-02-24T14:46:17;98976.44;;;-9.79;56.34
61113;BME280;47184;57.998;56.184;2023-02-24T14:48:44;98971.38;;;-9.80;56.53
61113;BME280;47184;57.998;56.184;2023-02-24T14:51:18;98972.25;;;-9.80;55.56
61113;BME280;47184;57.998;56.184;2023-02-24T14:53:50;98957.84;;;-10.04;56.53
61113;BME280;47184;57.998;56.184;2023-02-24T14:56:18;98967.81;;;-9.98;56.70
61113;BME280;47184;57.998;56.184;2023-02-24T14:59:29;98986.38;;;-10.16;57.74
61113;BME280;47184;57.998;56.184;2023-02-24T15:01:55;98979.91;;;-10.25;58.00
61113;BME280;47184;57.998;56.184;2023-02-24T15:04:34;98976.53;;;-10.26;57.94
61113;BME280;47184;57.998;56.184;2023-02-24T15:07:05;98982.22;;;-10.19;58.18
61113;BME280;47184;57.998;56.184;2023-02-24T15:09:40;98975.97;;;-10.34;58.13
61113;BME280;47184;57.998;56.184;2023-02-24T15:14:47;98988.06;;;-10.39;59.35
61113;BME280;47184;57.998;56.184;2023-02-24T15:17:17;98979.66;;;-10.41;59.32
61113;BME280;47184;57.998;56.184;2023-02-24T15:19:44;98993.28;;;-10.42;59.06
61113;BME280;47184;57.998;56.184;2023-02-24T15:22:21;98993.81;;;-10.32;59.47
61113;BME280;47184;57.998;56.184;2023-02-24T15:24:49;98991.28;;;-10.34;59.33
61113;BME280;47184;57.998;56.184;2023-02-24T15:27:20;99007.66;;;-10.39;59.09
61113;BME280;47184;57.998;56.184;2023-02-24T15:30:35;98998.72;;;-10.51;59.57
61113;BME280;47184;57.998;56.184;2023-02-24T15:36:05;99014.34;;;-10.85;61.57
61113;BME280;47184;57.998;56.184;2023-02-24T15:38:35;99012.41;;;-10.79;61.19